Dixon Springs, Tennessee
Current Conditions -  °F | °C
As of 6:53 AM on Tuesday 21 Oct 2014 (Local Time) from KBNA Reporting Station
Light Fog Light Fog  
Wind Chill: 47°   Ceiling: Unl
Heat Index: 47°   Visibility: 10mi
Dew Point: 45°   Wind: 0mph
Humidity: 93%   Direction: NA
Pressure: 30.04"   Gusts: NA
Location:  36.36°N, 86.05°W
Report Text: KBNA 211153Z 00000KT 10SM BCFG CLR 08/07 A3004 RMK AO2 SLP171 BCFG E T00830072 10122 20078 51012
Loading
Personal Weather Stations






























Interactive Weather Map
Tropical Storm Tracking
New forecast layout! Learn more

10-Day Weather Forecast

Advertisements
Track Severe Weather on mobile